CFL03 NZAP-NZAP

Flight info

Callsign CFL03
Flight time 0h 13m
Altitude 10000
Route VFR
Aircraft EC45/L-SFG/C

Departure

Time 2026-04-30 11:08
Airport Taupo Airport (NZAP)

Arrival

Time 2026-04-30 11:21
Airport Taupo Airport (NZAP)
Time Latitude Longitude Altitude Speed Heading
2026-04-30 11:07 -38.73900 176.08237 1326 ft 0 kts 23°
2026-04-30 11:07 -38.73894 176.08235 1336 ft 3 kts 27°
2026-04-30 11:07 -38.73904 176.08318 1441 ft 27 kts 105°
2026-04-30 11:07 -38.74155 176.08412 1544 ft 65 kts 195°
2026-04-30 11:08 -38.74676 176.08138 1721 ft 91 kts 203°
2026-04-30 11:08 -38.75287 176.07738 1919 ft 99 kts 199°
2026-04-30 11:08 -38.75922 176.07405 2208 ft 98 kts 199°
2026-04-30 11:08 -38.76554 176.07074 2499 ft 98 kts 199°
2026-04-30 11:09 -38.77179 176.06746 2791 ft 97 kts 199°
2026-04-30 11:09 -38.77799 176.06422 3081 ft 96 kts 199°
2026-04-30 11:09 -38.78423 176.06093 3378 ft 95 kts 199°
2026-04-30 11:09 -38.79082 176.05757 3479 ft 110 kts 194°
2026-04-30 11:10 -38.79847 176.05522 3560 ft 115 kts 189°
2026-04-30 11:10 -38.80645 176.05283 3655 ft 117 kts 189°
2026-04-30 11:10 -38.81435 176.05045 3751 ft 118 kts 189°
2026-04-30 11:10 -38.82242 176.04794 3850 ft 118 kts 188°
2026-04-30 11:11 -38.83041 176.04542 3949 ft 118 kts 188°
2026-04-30 11:11 -38.83847 176.04286 4050 ft 118 kts 188°
2026-04-30 11:11 -38.84634 176.04036 4149 ft 118 kts 188°
2026-04-30 11:11 -38.85435 176.03781 4249 ft 118 kts 188°
2026-04-30 11:12 -38.86229 176.03526 4349 ft 117 kts 188°
2026-04-30 11:12 -38.87023 176.03275 4449 ft 117 kts 188°
2026-04-30 11:12 -38.87820 176.03023 4494 ft 122 kts 188°
2026-04-30 11:12 -38.88659 176.02759 4491 ft 125 kts 188°
2026-04-30 11:13 -38.89527 176.02487 4494 ft 126 kts 188°
2026-04-30 11:13 -38.90382 176.02223 4497 ft 127 kts 188°
2026-04-30 11:13 -38.91235 176.01959 4501 ft 127 kts 188°
2026-04-30 11:13 -38.92106 176.01692 4503 ft 127 kts 188°
2026-04-30 11:14 -38.92970 176.01471 4500 ft 126 kts 178°
2026-04-30 11:14 -38.93763 176.01819 4500 ft 121 kts 140°
2026-04-30 11:14 -38.94183 176.02721 4502 ft 120 kts 103°
2026-04-30 11:14 -38.94048 176.03781 4502 ft 124 kts 65°
2026-04-30 11:15 -38.93398 176.04538 4503 ft 130 kts 31°
2026-04-30 11:15 -38.92578 176.05005 4499 ft 133 kts 20°
2026-04-30 11:15 -38.91650 176.05186 4504 ft 134 kts 11°
2026-04-30 11:15 -38.90722 176.05319 4502 ft 135 kts
2026-04-30 11:16 -38.89782 176.05444 4498 ft 136 kts
2026-04-30 11:16 -38.88831 176.05568 4495 ft 136 kts
2026-04-30 11:16 -38.87898 176.05690 4492 ft 136 kts
2026-04-30 11:16 -38.86939 176.05815 4491 ft 136 kts 10°
2026-04-30 11:17 -38.86001 176.05939 4491 ft 136 kts 10°
2026-04-30 11:17 -38.85055 176.06061 4499 ft 135 kts 10°
2026-04-30 11:17 -38.84067 176.06194 4274 ft 148 kts
2026-04-30 11:17 -38.83038 176.06323 4015 ft 148 kts
2026-04-30 11:18 -38.82026 176.06441 3785 ft 142 kts
2026-04-30 11:18 -38.80130 176.06668 3302 ft 131 kts
2026-04-30 11:18 -38.79246 176.06795 3117 ft 123 kts
2026-04-30 11:19 -38.78456 176.07027 3014 ft 110 kts 12°
2026-04-30 11:19 -38.77736 176.07233 2877 ft 104 kts 13°
2026-04-30 11:19 -38.77068 176.07428 2719 ft 95 kts 15°
2026-04-30 11:19 -38.76454 176.07628 2539 ft 88 kts 19°
2026-04-30 11:20 -38.75906 176.07844 2317 ft 78 kts 33°
2026-04-30 11:20 -38.75473 176.08264 2209 ft 76 kts 37°
2026-04-30 11:20 -38.75011 176.08655 2070 ft 82 kts 39°
2026-04-30 11:20 -38.74501 176.09055 1900 ft 89 kts 29°
2026-04-30 11:21 -38.73951 176.09152 1830 ft 76 kts 340°
2026-04-30 11:21 -38.73546 176.08800 1706 ft 65 kts 310°
2026-04-30 11:21 -38.73413 176.08319 1581 ft 39 kts 216°
2026-04-30 11:21 -38.73644 176.08138 1492 ft 31 kts 163°
2026-04-30 11:22 -38.73819 176.08098 1372 ft 10 kts 171°
2026-04-30 11:22 -38.73844 176.08092 1340 ft 3 kts 217°
2026-04-30 11:22 -38.73849 176.08084 1320 ft 0 kts 210°